Time;durP1;ratioP1;P1;durP2;ratioP2;P2;SDS_P1;SDS_P2;PMS_P1;PMS_P2;Temp;Humidity;BMP_temperature;BMP_pressure;BME280_temperature;BME280_humidity;BME280_pressure;Samples;Min_cycle;Max_cycle;Signal;HPM_P1;HPM_P2
2022/10/28 00:00:30;;;;;;;6.73;4.70;;;16.00;99.90;;;;;;5011774;28;20684;-67
2022/10/28 00:03:00;;;;;;;6.83;5.00;;;15.90;99.90;;;;;;5007538;28;20692;-68
2022/10/28 00:05:27;;;;;;;6.20;3.57;;;16.00;99.90;;;;;;5008037;28;20676;-67
2022/10/28 00:07:54;;;;;;;5.33;3.60;;;16.00;99.90;;;;;;5001734;28;20630;-66
2022/10/28 00:10:21;;;;;;;6.47;3.87;;;16.00;99.90;;;;;;5009954;28;21317;-67
2022/10/28 00:12:48;;;;;;;7.87;4.00;;;15.90;99.90;;;;;;5008594;28;20716;-68
2022/10/28 00:15:14;;;;;;;9.60;4.63;;;15.90;99.90;;;;;;5010810;28;20618;-67
2022/10/28 00:17:41;;;;;;;9.10;4.67;;;15.80;99.90;;;;;;5010211;28;20625;-66
2022/10/28 00:20:08;;;;;;;9.63;5.87;;;15.80;99.90;;;;;;5009681;28;20661;-69
2022/10/28 00:22:35;;;;;;;8.50;5.80;;;15.80;99.90;;;;;;5003233;28;20673;-67
2022/10/28 00:25:03;;;;;;;5.60;5.10;;;15.80;99.90;;;;;;5008655;28;20649;-67
2022/10/28 00:27:30;;;;;;;6.17;4.57;;;15.80;99.90;;;;;;5009966;28;21220;-69
2022/10/28 00:29:57;;;;;;;8.50;4.13;;;15.80;99.90;;;;;;5009209;28;20642;-67
2022/10/28 00:32:23;;;;;;;8.17;4.70;;;15.80;99.90;;;;;;5009841;28;20633;-65
2022/10/28 00:34:50;;;;;;;6.13;4.67;;;15.80;99.90;;;;;;4991442;28;20638;-66
2022/10/28 00:37:17;;;;;;;9.60;4.30;;;15.80;99.90;;;;;;5008706;28;20661;-66
2022/10/28 00:39:43;;;;;;;8.17;3.80;;;15.90;99.90;;;;;;5013235;28;20716;-65
2022/10/28 00:42:10;;;;;;;8.20;4.40;;;15.80;99.90;;;;;;5013298;28;20672;-67
2022/10/28 00:44:58;;;;;;;6.67;4.13;;;15.80;99.90;;;;;;5014121;28;20610;-66
2022/10/28 00:47:24;;;;;;;5.63;4.00;;;15.70;99.90;;;;;;5012879;28;20653;-66
2022/10/28 00:49:54;;;;;;;9.87;4.30;;;15.70;99.90;;;;;;5013085;28;20622;-65
2022/10/28 00:52:25;;;;;;;12.50;4.67;;;15.60;99.90;;;;;;5014100;28;20687;-66
2022/10/28 00:54:55;;;;;;;9.20;5.37;;;15.60;99.90;;;;;;5012786;28;20772;-66
2022/10/28 00:57:35;;;;;;;8.37;4.47;;;15.60;99.90;;;;;;5011605;28;21264;-67
2022/10/28 01:00:05;;;;;;;5.77;4.50;;;15.70;99.90;;;;;;5013498;28;20661;-67
2022/10/28 01:02:36;;;;;;;10.67;5.20;;;15.70;99.90;;;;;;5009373;28;20693;-67
2022/10/28 01:05:03;;;;;;;9.23;5.10;;;15.70;99.90;;;;;;5012805;28;20622;-68
2022/10/28 01:07:30;;;;;;;8.10;4.70;;;15.70;99.90;;;;;;5012769;28;20606;-68
2022/10/28 01:09:56;;;;;;;7.10;4.20;;;15.80;99.90;;;;;;5014374;28;20707;-66
2022/10/28 01:12:32;;;;;;;11.47;4.30;;;15.70;99.90;;;;;;5013640;28;20642;-67
2022/10/28 01:15:06;;;;;;;5.77;3.93;;;15.90;99.90;;;;;;5012851;28;20613;-67
2022/10/28 01:18:01;;;;;;;6.60;3.87;;;15.80;99.90;;;;;;5013248;28;20691;-67
2022/10/28 01:20:51;;;;;;;4.10;3.00;;;15.70;99.90;;;;;;5012932;28;20719;-66
2022/10/28 01:23:46;;;;;;;7.57;3.97;;;15.50;99.90;;;;;;5019809;28;20707;-66
2022/10/28 01:26:48;;;;;;;5.07;3.37;;;15.50;99.90;;;;;;5012284;28;20661;-67
2022/10/28 01:29:48;;;;;;;6.30;5.00;;;15.50;99.90;;;;;;5013346;28;20625;-67
2022/10/28 01:32:30;;;;;;;7.83;5.00;;;15.50;99.90;;;;;;5013277;28;20637;-67
2022/10/28 01:34:57;;;;;;;8.60;5.30;;;15.60;99.90;;;;;;5012379;28;20624;-67
2022/10/28 01:38:02;;;;;;;5.77;4.53;;;15.60;99.90;;;;;;5012702;28;21069;-67
2022/10/28 01:40:33;;;;;;;5.70;3.77;;;15.70;99.90;;;;;;5012139;28;21215;-67
2022/10/28 01:43:14;;;;;;;4.87;3.80;;;15.70;99.90;;;;;;5013933;28;20610;-66
2022/10/28 01:46:08;;;;;;;5.57;3.40;;;15.70;99.90;;;;;;5011825;28;20708;-66
2022/10/28 01:48:55;;;;;;;8.77;4.10;;;15.80;99.90;;;;;;5008580;28;20705;-66
2022/10/28 01:51:28;;;;;;;5.80;3.93;;;15.70;99.90;;;;;;5001404;28;20633;-68
2022/10/28 01:53:58;;;;;;;7.30;4.00;;;15.60;99.90;;;;;;5012223;28;20633;-67
2022/10/28 01:56:30;;;;;;;8.00;4.67;;;15.60;99.90;;;;;;5011445;28;20732;-66
2022/10/28 01:58:59;;;;;;;11.40;5.03;;;15.60;99.90;;;;;;5012728;28;20657;-67
2022/10/28 02:01:28;;;;;;;10.60;5.30;;;15.70;99.90;;;;;;5012486;28;20642;-68
2022/10/28 02:03:56;;;;;;;5.17;4.13;;;15.70;99.90;;;;;;5012171;28;20973;-67
2022/10/28 02:06:26;;;;;;;5.20;3.70;;;15.70;99.90;;;;;;5011611;28;20707;-67
2022/10/28 02:08:53;;;;;;;8.30;5.00;;;15.70;99.90;;;;;;5012056;28;20621;-67
2022/10/28 02:11:47;;;;;;;6.63;4.30;;;15.80;99.90;;;;;;5011574;28;20668;-67
2022/10/28 02:14:42;;;;;;;6.47;4.50;;;15.80;99.90;;;;;;5012176;28;20660;-67
2022/10/28 02:17:25;;;;;;;6.20;4.17;;;15.80;99.90;;;;;;5014074;28;20666;-67
2022/10/28 02:20:33;;;;;;;5.00;3.70;;;15.80;99.90;;;16.10;nan;101242.69;5011237;28;20657;-66
2022/10/28 02:23:49;;;;;;;5.50;4.03;;;15.80;99.90;;;16.32;nan;101239.88;4992650;28;20627;-68
2022/10/28 02:26:25;;;;;;;9.47;4.27;;;15.80;99.90;;;16.36;nan;101236.03;4996258;28;20666;-67
2022/10/28 02:29:07;;;;;;;5.10;4.03;;;15.80;99.90;;;16.44;nan;101232.75;5010250;28;20756;-68
2022/10/28 02:31:54;;;;;;;7.00;3.50;;;15.80;99.90;;;16.40;nan;101229.53;4985136;28;20669;-67
2022/10/28 02:34:27;;;;;;;5.73;3.73;;;15.90;99.90;;;16.40;nan;101224.25;5003775;28;20626;-68
2022/10/28 02:36:58;;;;;;;6.73;3.80;;;15.80;99.90;;;16.46;nan;101215.00;4994383;28;20696;-66
2022/10/28 02:39:34;;;;;;;7.60;4.27;;;15.90;99.90;;;16.57;nan;101214.94;4994147;28;20666;-67
2022/10/28 02:42:12;;;;;;;8.47;3.13;;;15.90;99.90;;;16.54;nan;101209.91;5009419;28;21216;-67
2022/10/28 02:44:46;;;;;;;7.00;3.87;;;15.90;99.90;;;16.33;nan;101208.16;5005520;28;20638;-67
2022/10/28 02:47:20;;;;;;;4.30;3.90;;;15.90;99.90;;;16.20;nan;101207.56;4996711;28;20661;-68
2022/10/28 02:49:54;;;;;;;9.30;3.70;;;15.80;99.90;;;16.33;nan;101202.06;4993189;28;20618;-67
2022/10/28 02:52:26;;;;;;;4.03;3.50;;;15.70;99.90;;;16.31;nan;101206.63;5000344;28;20683;-67
2022/10/28 02:54:59;;;;;;;4.17;3.53;;;15.80;99.90;;;16.46;nan;101197.38;5009782;28;20980;-67
2022/10/28 02:57:31;;;;;;;13.03;5.13;;;15.80;99.90;;;16.37;nan;101192.94;4997190;28;20641;-67
2022/10/28 03:00:08;;;;;;;6.27;4.80;;;15.80;99.90;;;16.41;nan;101191.69;4993160;28;20662;-66
2022/10/28 03:02:35;;;;;;;6.70;3.57;;;15.80;99.90;;;16.41;nan;101193.50;5002983;28;20641;-67
2022/10/28 03:05:06;;;;;;;8.40;4.40;;;15.80;99.90;;;16.48;nan;101177.03;5006361;28;21036;-67
2022/10/28 03:07:33;;;;;;;16.00;3.77;;;15.80;99.90;;;16.50;nan;101172.50;4995606;28;20636;-66
2022/10/28 03:10:00;;;;;;;4.97;3.83;;;15.80;99.90;;;16.33;nan;101173.09;5008753;28;20621;-66
2022/10/28 03:12:27;;;;;;;5.10;3.57;;;15.80;99.90;;;16.23;nan;101165.16;4992905;28;21079;-66
2022/10/28 03:14:53;;;;;;;5.60;3.90;;;15.70;99.90;;;16.20;nan;101175.13;4990560;28;20997;-67
2022/10/28 03:17:20;;;;;;;10.60;4.83;;;15.70;99.90;;;16.29;nan;101172.50;4999658;28;20670;-66
2022/10/28 03:19:47;;;;;;;6.53;4.13;;;15.70;99.90;;;16.36;nan;101178.09;5010837;28;21074;-66
2022/10/28 03:22:14;;;;;;;6.93;3.33;;;15.70;99.90;;;16.27;nan;101174.44;5010719;28;20632;-66
2022/10/28 03:24:41;;;;;;;4.70;3.50;;;15.70;99.90;;;16.30;nan;101174.19;5011135;28;20640;-66
2022/10/28 03:27:08;;;;;;;6.50;4.10;;;15.70;99.90;;;16.36;nan;101169.34;5011210;28;21227;-66
2022/10/28 03:29:35;;;;;;;6.80;4.00;;;15.80;99.90;;;16.27;nan;101173.63;4993978;28;20614;-66
2022/10/28 03:32:02;;;;;;;6.23;4.43;;;15.70;99.90;;;16.27;nan;101170.97;5010953;28;21336;-68
2022/10/28 03:34:28;;;;;;;4.83;4.27;;;15.70;99.90;;;16.33;nan;101169.63;5010638;28;20640;-66
2022/10/28 03:36:55;;;;;;;7.83;3.80;;;15.70;99.90;;;16.30;nan;101173.34;5010000;28;20672;-66
2022/10/28 03:39:22;;;;;;;7.03;4.53;;;15.70;99.90;;;16.33;nan;101178.38;5011138;28;20661;-66
2022/10/28 03:41:49;;;;;;;5.50;4.23;;;15.70;99.90;;;16.22;nan;101183.72;5010135;28;20644;-66
2022/10/28 03:44:16;;;;;;;5.33;4.40;;;15.70;99.90;;;16.28;nan;101188.47;5011662;28;20616;-66
2022/10/28 03:46:43;;;;;;;7.20;4.43;;;15.70;99.90;;;16.28;nan;101188.47;5009951;28;20654;-66
2022/10/28 03:49:10;;;;;;;8.57;4.57;;;15.70;99.90;;;16.34;nan;101182.66;5010591;28;20622;-68
2022/10/28 03:51:37;;;;;;;7.20;4.53;;;15.70;99.90;;;16.42;nan;101180.19;5010763;28;20646;-66
2022/10/28 03:54:04;;;;;;;7.63;4.03;;;15.70;99.90;;;16.37;nan;101185.03;5010727;28;20728;-66
2022/10/28 03:56:30;;;;;;;6.67;4.30;;;15.80;99.90;;;16.36;nan;101180.72;5033243;22;21282;-65
2022/10/28 03:58:57;;;;;;;11.53;4.80;;;15.80;99.90;;;16.44;nan;101188.78;5013486;28;20635;-65
2022/10/28 04:01:24;;;;;;;5.90;4.40;;;15.80;99.90;;;16.42;nan;101195.97;5029394;28;20671;-66
2022/10/28 04:03:51;;;;;;;5.20;4.00;;;15.80;99.90;;;16.38;nan;101188.47;5030641;28;20717;-65
2022/10/28 04:06:18;;;;;;;9.80;4.37;;;15.80;99.90;;;16.35;nan;101183.50;5026573;28;21246;-64
2022/10/28 04:08:45;;;;;;;7.60;4.43;;;15.80;99.90;;;16.30;nan;101191.78;5010668;28;20622;-66
2022/10/28 04:11:12;;;;;;;4.83;3.73;;;15.80;99.90;;;16.33;nan;101183.63;5010125;28;20618;-65
2022/10/28 04:13:39;;;;;;;5.70;3.80;;;15.70;99.90;;;16.32;nan;101181.97;5014405;28;21014;-65
2022/10/28 04:16:06;;;;;;;6.60;4.27;;;15.70;99.90;;;16.29;nan;101174.34;5012845;28;20772;-65
2022/10/28 04:18:34;;;;;;;6.07;4.27;;;15.70;99.90;;;16.25;nan;101180.81;5014069;28;20631;-64
2022/10/28 04:21:02;;;;;;;11.40;3.77;;;15.70;99.90;;;16.22;nan;101174.03;5013298;28;20665;-65
2022/10/28 04:23:29;;;;;;;5.67;4.17;;;15.70;99.90;;;16.22;nan;101184.56;4996770;28;21235;-65
2022/10/28 04:25:56;;;;;;;5.93;3.77;;;15.70;99.90;;;16.21;nan;101182.88;5013293;28;20637;-66
2022/10/28 04:28:23;;;;;;;4.40;4.00;;;15.70;99.90;;;16.21;nan;101182.06;5012246;28;21007;-65
2022/10/28 04:30:50;;;;;;;7.60;4.40;;;15.60;99.90;;;16.17;nan;101191.19;5012596;28;20644;-65
2022/10/28 04:33:17;;;;;;;13.10;4.50;;;15.60;99.90;;;16.13;nan;101189.78;5017153;28;21230;-64
2022/10/28 04:35:44;;;;;;;6.37;4.43;;;15.60;99.90;;;16.14;nan;101194.09;5018971;28;20669;-64
2022/10/28 04:38:14;;;;;;;5.73;4.93;;;15.60;99.90;;;16.14;nan;101202.00;5010930;28;20648;-64
2022/10/28 04:40:41;;;;;;;7.93;4.57;;;15.60;99.90;;;16.17;nan;101205.19;5012091;28;20669;-65
2022/10/28 04:43:10;;;;;;;6.60;5.10;;;15.60;99.90;;;16.17;nan;101205.19;5008429;28;20634;-64
2022/10/28 04:45:37;;;;;;;5.73;3.13;;;15.60;99.90;;;16.14;nan;101202.00;5013411;28;20695;-65
2022/10/28 04:48:05;;;;;;;6.13;3.77;;;15.60;99.90;;;16.05;nan;101194.88;5013079;28;20615;-65
2022/10/28 04:50:32;;;;;;;6.50;4.00;;;15.60;99.90;;;16.06;nan;101186.00;5012413;28;20642;-64
2022/10/28 04:52:59;;;;;;;5.70;3.50;;;15.50;99.90;;;16.04;nan;101172.97;5013671;28;20626;-65
2022/10/28 04:55:26;;;;;;;8.50;3.73;;;15.50;99.90;;;15.89;nan;101176.94;5012224;28;20625;-65
2022/10/28 04:57:59;;;;;;;5.90;3.57;;;15.50;99.90;;;15.83;nan;101195.03;4996310;28;20651;-64
2022/10/28 05:00:28;;;;;;;6.20;4.23;;;15.40;99.90;;;15.79;nan;101204.16;4994280;28;20661;-64
2022/10/28 05:02:54;;;;;;;9.83;4.13;;;15.30;99.90;;;15.87;nan;101194.66;5014886;28;20617;-65
2022/10/28 05:05:22;;;;;;;5.30;3.60;;;15.30;99.90;;;15.83;nan;101195.88;5032426;28;20621;-66
2022/10/28 05:07:49;;;;;;;4.63;3.80;;;15.30;99.90;;;15.88;nan;101196.31;5014211;28;20633;-65
2022/10/28 05:10:16;;;;;;;7.13;4.40;;;15.30;99.90;;;15.83;nan;101193.25;5013336;28;20621;-66
2022/10/28 05:12:45;;;;;;;10.43;4.40;;;15.30;99.90;;;15.81;nan;101197.81;5013716;28;20815;-64
2022/10/28 05:15:13;;;;;;;6.17;4.70;;;15.30;99.90;;;15.80;nan;101197.94;5013344;28;20641;-64
2022/10/28 05:17:43;;;;;;;9.10;4.60;;;15.30;99.90;;;15.75;nan;101195.69;5004426;28;20661;-64
2022/10/28 05:20:12;;;;;;;4.67;4.10;;;15.20;99.90;;;15.81;nan;101194.31;5009045;28;20707;-66
2022/10/28 05:22:49;;;;;;;6.70;4.40;;;15.30;99.90;;;15.79;nan;101191.00;4995405;28;20632;-65
2022/10/28 05:25:16;;;;;;;6.97;3.60;;;15.30;99.90;;;15.85;nan;101185.22;5010746;28;20629;-66
2022/10/28 05:27:44;;;;;;;8.03;3.80;;;15.30;99.90;;;15.75;nan;101176.44;5012155;28;20664;-65
2022/10/28 05:30:11;;;;;;;5.27;3.30;;;15.30;99.90;;;15.60;nan;101172.47;5011900;28;20634;-65
2022/10/28 05:32:39;;;;;;;6.90;3.53;;;15.20;99.90;;;15.61;nan;101177.59;5008670;28;20641;-64
2022/10/28 05:35:07;;;;;;;5.63;3.80;;;15.10;99.90;;;15.56;nan;101171.06;5014860;28;20659;-65
2022/10/28 05:37:34;;;;;;;6.97;4.50;;;15.10;99.90;;;15.59;nan;101176.88;5012438;28;20661;-64
2022/10/28 05:40:01;;;;;;;5.83;4.57;;;15.10;99.90;;;15.57;nan;101172.75;4995114;28;20656;-63
2022/10/28 05:42:28;;;;;;;6.50;4.50;;;15.10;99.90;;;15.59;nan;101170.81;5012255;28;20644;-66
2022/10/28 05:44:54;;;;;;;9.03;4.33;;;15.10;99.90;;;15.63;nan;101166.97;5012161;28;20632;-66
2022/10/28 05:47:21;;;;;;;4.33;3.73;;;15.10;99.90;;;15.62;nan;101163.50;5008356;28;20729;-66
2022/10/28 05:49:48;;;;;;;3.87;3.40;;;15.10;99.90;;;15.64;nan;101171.25;5012320;28;21414;-64
2022/10/28 05:52:15;;;;;;;4.30;3.90;;;15.10;99.90;;;15.68;nan;101167.38;5006475;28;21381;-66
2022/10/28 05:54:42;;;;;;;5.23;3.60;;;15.10;99.90;;;15.72;nan;101161.75;5012249;28;20636;-67
2022/10/28 05:57:09;;;;;;;7.60;4.00;;;15.10;99.90;;;15.73;nan;101155.53;5010817;28;20668;-66
2022/10/28 05:59:36;;;;;;;5.70;4.00;;;15.10;99.90;;;15.65;nan;101163.25;5012368;28;20625;-67
2022/10/28 06:02:03;;;;;;;4.73;3.70;;;15.10;99.90;;;15.71;nan;101165.34;5010295;28;20630;-67
2022/10/28 06:04:30;;;;;;;5.87;4.23;;;15.10;99.90;;;15.71;nan;101167.13;5014549;28;20634;-63
2022/10/28 06:06:57;;;;;;;7.00;4.30;;;15.10;99.90;;;15.78;nan;101174.38;5012998;28;20661;-65
2022/10/28 06:09:27;;;;;;;6.90;4.53;;;15.20;99.90;;;15.79;nan;101175.22;5013424;28;20630;-66
2022/10/28 06:11:54;;;;;;;7.03;4.50;;;15.20;99.90;;;15.79;nan;101176.06;5010416;28;20636;-63
2022/10/28 06:14:21;;;;;;;6.33;4.60;;;15.20;99.90;;;15.86;nan;101176.38;5010241;28;20633;-66
2022/10/28 06:16:48;;;;;;;9.03;4.60;;;15.30;99.90;;;15.80;nan;101182.97;5011024;28;20683;-64
2022/10/28 06:19:15;;;;;;;7.07;4.70;;;15.30;99.90;;;15.74;nan;101180.84;5011762;28;20610;-63
2022/10/28 06:21:42;;;;;;;9.30;4.27;;;15.20;99.90;;;15.83;nan;101187.97;5011915;28;20661;-65
2022/10/28 06:24:09;;;;;;;5.33;4.50;;;15.30;99.90;;;15.91;nan;101184.69;5012899;28;21211;-63
2022/10/28 06:26:40;;;;;;;4.60;3.70;;;15.30;99.90;;;15.88;nan;101185.81;5010571;28;20843;-64
2022/10/28 06:29:10;;;;;;;6.93;4.77;;;15.30;99.90;;;15.98;nan;101193.72;5013083;28;20629;-65
2022/10/28 06:31:41;;;;;;;6.23;4.37;;;15.30;99.90;;;16.00;nan;101189.16;5000592;28;20634;-64
2022/10/28 06:34:09;;;;;;;10.90;4.67;;;15.40;99.90;;;16.04;nan;101187.94;5011030;28;21061;-65
2022/10/28 06:36:36;;;;;;;7.60;4.80;;;15.40;99.90;;;16.04;nan;101190.56;5007102;28;20695;-65
2022/10/28 06:39:04;;;;;;;7.93;3.80;;;15.40;99.90;;;16.14;nan;101194.91;5007185;28;20648;-64
2022/10/28 06:41:31;;;;;;;9.40;4.07;;;15.50;99.90;;;16.23;nan;101193.28;4993531;28;21283;-64
2022/10/28 06:43:59;;;;;;;6.60;5.00;;;15.60;99.90;;;16.25;nan;101200.09;5010896;28;20648;-65
2022/10/28 06:46:26;;;;;;;7.10;4.03;;;15.60;99.90;;;16.34;nan;101193.19;5005194;28;20668;-64
2022/10/28 06:48:54;;;;;;;9.70;3.17;;;15.60;99.90;;;16.28;nan;101196.34;5001990;28;20629;-64
2022/10/28 06:51:22;;;;;;;9.47;3.80;;;15.70;99.90;;;16.25;nan;101199.25;5006540;28;20638;-65
2022/10/28 06:53:50;;;;;;;3.63;2.97;;;15.70;99.90;;;16.21;nan;101195.22;5011492;28;21039;-64
2022/10/28 06:56:17;;;;;;;7.73;4.30;;;15.60;99.90;;;16.11;nan;101200.47;5010020;28;20670;-65
2022/10/28 06:58:52;;;;;;;3.43;2.97;;;15.60;99.90;;;15.73;nan;101195.00;5009922;28;21057;-65
2022/10/28 07:01:20;;;;;;;4.33;3.53;;;15.50;99.90;;;15.66;nan;101198.25;5008991;28;20676;-64
2022/10/28 07:03:48;;;;;;;10.77;3.03;;;15.40;99.90;;;15.68;nan;101196.31;5010228;28;20638;-65
2022/10/28 07:06:16;;;;;;;6.60;3.80;;;15.30;99.90;;;15.80;nan;101205.84;5009938;28;20668;-64
2022/10/28 07:08:43;;;;;;;7.77;3.60;;;15.30;99.90;;;15.84;nan;101205.44;5010922;28;20676;-65
2022/10/28 07:11:10;;;;;;;4.23;3.10;;;15.30;99.90;;;15.90;nan;101209.34;4992416;28;21060;-63
2022/10/28 07:13:37;;;;;;;5.27;3.70;;;15.30;99.90;;;15.95;nan;101217.69;4994446;28;20687;-65
2022/10/28 07:16:05;;;;;;;8.10;3.50;;;15.30;99.90;;;15.70;nan;101218.06;5010388;28;20645;-66
2022/10/28 07:18:32;;;;;;;3.73;3.13;;;15.30;99.90;;;15.79;nan;101215.53;5010597;28;20644;-64
2022/10/28 07:21:00;;;;;;;3.40;3.00;;;15.30;99.90;;;15.67;nan;101210.47;5009266;28;20669;-67
2022/10/28 07:23:30;;;;;;;5.67;3.60;;;15.20;99.90;;;15.66;nan;101212.25;4978355;28;20704;-65
2022/10/28 07:25:57;;;;;;;4.63;3.40;;;15.20;99.90;;;15.65;nan;101225.53;5003466;28;20649;-66
2022/10/28 07:28:25;;;;;;;5.50;3.80;;;15.20;99.90;;;15.88;nan;101235.81;5004076;28;20641;-65
2022/10/28 07:30:52;;;;;;;4.27;3.40;;;15.20;99.90;;;15.99;nan;101229.63;4994321;28;21015;-65
2022/10/28 07:33:19;;;;;;;8.33;4.53;;;15.30;99.90;;;16.11;nan;101239.09;5010401;28;21251;-65
2022/10/28 07:35:46;;;;;;;7.57;4.00;;;15.40;99.90;;;16.16;nan;101231.66;5005904;28;20680;-65
2022/10/28 07:38:13;;;;;;;6.00;3.40;;;15.50;99.90;;;16.22;nan;101228.50;4997541;28;20634;-66
2022/10/28 07:40:40;;;;;;;5.93;3.33;;;15.50;99.90;;;16.00;nan;101226.84;5010962;28;20739;-64
2022/10/28 07:43:07;;;;;;;13.00;3.27;;;15.50;99.90;;;16.05;nan;101221.19;5010137;28;20606;-63
2022/10/28 07:45:36;;;;;;;7.87;4.40;;;15.50;99.90;;;16.22;nan;101225.84;5010408;28;20648;-65
2022/10/28 07:48:04;;;;;;;10.90;3.97;;;15.50;99.90;;;16.33;nan;101234.47;4988154;28;20647;-65
2022/10/28 07:50:31;;;;;;;5.07;3.63;;;15.60;99.90;;;16.42;nan;101245.22;5010831;28;20621;-65
2022/10/28 07:52:59;;;;;;;5.07;3.60;;;15.70;99.90;;;16.58;nan;101235.03;4989233;28;20646;-65
2022/10/28 07:55:26;;;;;;;6.73;4.70;;;15.80;99.90;;;16.66;nan;101238.66;5014157;28;21222;-65
2022/10/28 07:57:53;;;;;;;9.13;4.20;;;15.90;99.90;;;16.67;nan;101245.63;5012353;28;20653;-65
2022/10/28 08:00:20;;;;;;;6.63;3.87;;;15.90;99.90;;;16.65;nan;101239.63;5018010;28;20632;-65
2022/10/28 08:02:47;;;;;;;6.50;3.40;;;15.90;99.90;;;16.55;nan;101235.28;5011345;28;20643;-65
2022/10/28 08:05:14;;;;;;;9.67;4.33;;;16.00;99.90;;;16.29;nan;101232.28;5014908;28;20634;-65
2022/10/28 08:07:41;;;;;;;6.20;3.43;;;15.90;99.90;;;16.43;nan;101233.69;5013835;28;20644;-65
2022/10/28 08:10:08;;;;;;;8.87;3.80;;;15.80;99.90;;;16.62;nan;101233.78;5014410;28;20715;-66
2022/10/28 08:12:35;;;;;;;8.60;3.80;;;15.90;99.90;;;16.75;nan;101237.84;5013852;28;20623;-66
2022/10/28 08:15:03;;;;;;;8.40;3.70;;;16.00;99.90;;;16.75;nan;101237.03;5013960;28;20630;-66
2022/10/28 08:17:30;;;;;;;4.07;3.27;;;16.00;99.90;;;16.96;nan;101232.47;5011453;28;20662;-67
2022/10/28 08:19:57;;;;;;;6.20;3.13;;;16.20;99.90;;;16.85;nan;101220.25;4999975;28;20633;-66
2022/10/28 08:22:24;;;;;;;5.77;3.03;;;16.20;99.90;;;17.00;nan;101226.81;5001715;28;20665;-68
2022/10/28 08:24:51;;;;;;;3.70;3.30;;;16.30;99.90;;;16.75;nan;101229.94;5013225;28;20687;-67
2022/10/28 08:27:17;;;;;;;4.63;3.00;;;16.30;99.90;;;16.85;nan;101219.41;5012668;28;20679;-66
2022/10/28 08:29:44;;;;;;;8.73;3.37;;;16.30;99.90;;;16.94;nan;101235.25;5015053;28;20636;-66
2022/10/28 08:32:11;;;;;;;6.60;4.13;;;16.30;99.90;;;17.22;nan;101238.06;5010321;28;20641;-65
2022/10/28 08:34:38;;;;;;;7.00;4.97;;;16.40;99.90;;;17.48;nan;101241.81;5010491;28;20641;-66
2022/10/28 08:37:08;;;;;;;10.30;4.10;;;16.50;99.90;;;17.64;nan;101239.47;5012905;28;21289;-66
2022/10/28 08:39:35;;;;;;;5.73;4.20;;;16.70;99.90;;;17.79;nan;101240.69;5012963;28;20630;-65
2022/10/28 08:42:35;;;;;;;9.33;4.10;;;16.80;99.90;;;18.02;nan;101247.31;5013426;28;21244;-67
2022/10/28 08:45:59;;;;;;;8.20;3.50;;;16.90;99.90;;;18.40;nan;101241.03;5006464;28;20822;-65
2022/10/28 08:48:44;;;;;;;9.60;4.50;;;17.10;99.90;;;18.60;nan;101229.44;4988889;28;21419;-66
2022/10/28 08:51:19;;;;;;;5.10;4.27;;;17.40;99.90;;;18.62;nan;101224.00;4995299;28;20636;-66
2022/10/28 08:53:57;;;;;;;5.80;4.10;;;17.50;99.90;;;18.61;nan;101225.00;5012705;28;21040;-66
2022/10/28 08:56:32;;;;;;;4.20;3.50;;;17.60;99.90;;;18.55;nan;101227.25;5012368;28;20672;-66
2022/10/28 08:59:04;;;;;;;4.00;3.37;;;17.60;99.90;;;18.58;nan;101234.88;5013221;28;20621;-65
2022/10/28 09:01:52;;;;;;;3.80;3.50;;;17.60;99.90;;;18.69;nan;101233.00;5016840;28;21020;-65
2022/10/28 09:04:43;;;;;;;9.53;4.10;;;17.70;99.90;;;18.68;nan;101232.19;4991528;28;20642;-67
2022/10/28 09:07:19;;;;;;;5.47;3.83;;;17.70;99.90;;;18.63;nan;101234.44;4993122;28;21305;-65
2022/10/28 09:09:48;;;;;;;7.23;3.70;;;17.70;99.90;;;18.41;nan;101226.88;4998459;28;20971;-66
2022/10/28 09:12:51;;;;;;;7.07;2.90;;;17.70;99.90;;;18.39;nan;101224.38;5013315;28;20630;-67
2022/10/28 09:15:43;;;;;;;11.90;3.83;;;17.60;99.90;;;18.58;nan;101221.69;5013209;28;20641;-66
2022/10/28 09:18:29;;;;;;;3.63;3.33;;;17.60;99.90;;;18.82;nan;101222.91;4994721;28;20642;-66
2022/10/28 09:21:01;;;;;;;7.67;4.47;;;17.70;99.90;;;18.96;nan;101232.97;5000618;28;21249;-63
2022/10/28 09:23:31;;;;;;;4.33;3.60;;;17.80;99.90;;;19.05;nan;101238.22;5001534;28;20642;-64
2022/10/28 09:26:23;;;;;;;5.30;3.80;;;17.90;99.90;;;19.08;nan;101229.16;5011249;28;20752;-64
2022/10/28 09:29:16;;;;;;;7.50;3.80;;;18.00;99.90;;;19.14;nan;101226.75;5032791;28;20616;-64
2022/10/28 09:32:20;;;;;;;8.70;3.93;;;18.10;99.90;;;20.17;nan;101228.69;5008174;28;20644;-65
2022/10/28 09:34:56;;;;;;;4.93;3.70;;;18.40;99.90;;;21.48;nan;101227.94;5005942;28;20691;-64
2022/10/28 09:37:39;;;;;;;10.00;3.40;;;19.20;99.90;;;;;;5013309;28;20655;-65
2022/10/28 09:40:35;;;;;;;5.57;3.23;;;20.80;99.90;;;28.72;nan;101231.56;5013703;28;20679;-64
2022/10/28 09:43:25;;;;;;;5.80;3.50;;;23.20;99.90;;;31.01;nan;101232.13;5012455;28;20646;-65
2022/10/28 09:46:01;;;;;;;6.70;3.43;;;25.60;99.90;;;32.47;nan;101233.78;5012747;28;20638;-65
2022/10/28 09:48:31;;;;;;;4.33;3.63;;;27.40;99.90;;;31.58;nan;101242.25;4994624;28;21269;-64
2022/10/28 09:50:59;;;;;;;4.43;3.50;;;27.70;99.60;;;29.44;nan;101223.06;4994070;28;20644;-65
2022/10/28 09:53:51;;;;;;;5.20;3.67;;;26.90;99.30;;;27.19;nan;101225.78;5012523;28;20644;-65
2022/10/28 09:56:17;;;;;;;10.00;3.47;;;25.80;99.90;;;27.82;nan;101223.53;4997369;28;20711;-65
2022/10/28 09:58:46;;;;;;;6.00;3.47;;;25.50;99.90;;;30.69;nan;101241.47;5012473;28;21199;-65
2022/10/28 10:01:16;;;;;;;7.20;3.60;;;26.60;99.90;;;32.30;nan;101242.81;5002498;28;20674;-66
2022/10/28 10:03:44;;;;;;;5.93;3.40;;;27.70;98.20;;;34.47;nan;101242.78;5001773;28;20629;-65
2022/10/28 10:06:36;;;;;;;3.83;3.13;;;29.20;95.90;;;35.99;nan;101237.75;4987581;28;20692;-61
2022/10/28 10:09:03;;;;;;;10.00;3.33;;;30.90;91.20;;;35.81;nan;101227.28;4985641;28;20633;-65
2022/10/28 10:11:48;;;;;;;5.87;2.80;;;31.50;86.60;;;37.06;nan;101235.13;5011371;28;20719;-67
2022/10/28 10:14:22;;;;;;;4.20;3.00;;;32.30;81.40;;;38.08;nan;101226.63;4995008;28;20626;-65
2022/10/28 10:17:15;;;;;;;6.73;3.10;;;33.00;77.60;;;37.98;nan;101234.84;5011001;28;20665;-66
2022/10/28 10:20:00;;;;;;;6.40;3.07;;;33.50;72.90;;;36.30;nan;101215.06;5012777;28;20636;-68
2022/10/28 10:22:39;;;;;;;5.23;2.93;;;33.00;71.30;;;32.53;nan;101213.06;5012250;28;20702;-66
2022/10/28 10:25:18;;;;;;;7.57;3.23;;;31.20;73.10;;;28.58;nan;101201.25;4994848;28;21193;-65
2022/10/28 10:28:15;;;;;;;4.97;3.20;;;28.60;78.20;;;;;;5010855;28;21238;-66
2022/10/28 10:30:49;;;;;;;7.40;2.67;;;26.50;84.10;;;;;;5006689;28;20626;-65
2022/10/28 10:33:20;;;;;;;4.57;2.70;;;25.30;90.10;;;;;;5011883;28;20617;-64
2022/10/28 10:36:19;;;;;;;6.93;3.17;;;24.50;92.20;;;;;;5010812;28;20665;-65
2022/10/28 10:38:54;;;;;;;3.53;2.93;;;23.80;95.10;;;;;;4995743;28;20683;-65
2022/10/28 10:41:41;;;;;;;11.37;3.20;;;23.40;97.30;;;;;;5011184;28;21306;-67
2022/10/28 10:44:20;;;;;;;4.00;2.53;;;22.90;99.90;;;;;;5011355;28;20649;-66
2022/10/28 10:46:59;;;;;;;4.00;3.10;;;22.80;99.90;;;;;;5004158;28;20665;-66
2022/10/28 10:49:33;;;;;;;4.67;3.30;;;22.50;99.90;;;;;;5018829;28;20625;-66
2022/10/28 10:52:16;;;;;;;12.43;2.90;;;22.20;99.90;;;;;;5011399;28;20637;-67
2022/10/28 10:55:07;;;;;;;3.77;2.60;;;22.00;99.90;;;;;;5014437;28;20622;-64
2022/10/28 10:57:34;;;;;;;6.30;2.23;;;21.80;99.90;;;;;;5004755;28;20665;-65
2022/10/28 11:00:02;;;;;;;4.80;2.03;;;21.50;99.90;;;;;;5012897;28;20676;-67
2022/10/28 11:02:38;;;;;;;5.47;2.90;;;21.30;99.90;;;;;;5014805;28;20722;-64
2022/10/28 11:05:07;;;;;;;2.53;1.80;;;21.00;99.90;;;;;;5014090;28;21013;-66
2022/10/28 11:07:36;;;;;;;18.40;1.90;;;20.90;99.90;;;;;;5010260;28;21302;-64
2022/10/28 11:10:04;;;;;;;11.77;3.27;;;20.80;99.90;;;;;;5011093;28;20638;-64
2022/10/28 11:12:37;;;;;;;4.30;2.20;;;20.70;99.90;;;;;;4989637;28;21219;-65
2022/10/28 11:15:16;;;;;;;7.80;2.90;;;20.70;99.90;;;;;;5008494;28;20637;-65
2022/10/28 11:17:57;;;;;;;5.20;2.93;;;20.60;99.90;;;;;;5004208;28;20849;-66
2022/10/28 11:20:45;;;;;;;9.10;2.40;;;20.60;99.90;;;;;;5010099;28;20703;-62
2022/10/28 11:23:30;;;;;;;1.93;1.53;;;20.60;99.90;;;;;;5018468;28;20696;-64